createdAt,value
2023-01-30T00:01:58.770Z,100.00
2023-01-30T00:04:28.278Z,100.00
2023-01-30T00:06:58.082Z,100.00
2023-01-30T00:09:28.890Z,100.00
2023-01-30T00:11:58.584Z,100.00
2023-01-30T00:14:27.982Z,100.00
2023-01-30T00:16:57.742Z,100.00
2023-01-30T00:19:27.075Z,100.00
2023-01-30T00:21:58.848Z,100.00
2023-01-30T00:24:29.742Z,100.00
2023-01-30T00:26:59.528Z,100.00
2023-01-30T00:29:29.084Z,100.00
2023-01-30T00:31:58.732Z,100.00
2023-01-30T00:34:30.334Z,100.00
2023-01-30T00:37:08.166Z,100.00
2023-01-30T00:39:39.518Z,100.00
2023-01-30T00:42:27.851Z,100.00
2023-01-30T00:45:15.140Z,100.00
2023-01-30T00:47:45.085Z,100.00
2023-01-30T00:50:14.791Z,100.00
2023-01-30T00:52:46.130Z,100.00
2023-01-30T00:55:19.770Z,100.00
2023-01-30T00:57:49.841Z,100.00
2023-01-30T01:00:20.999Z,100.00
2023-01-30T01:02:50.275Z,100.00
2023-01-30T01:05:20.832Z,100.00
2023-01-30T01:07:50.485Z,100.00
2023-01-30T01:10:21.890Z,100.00
2023-01-30T01:12:53.406Z,100.00
2023-01-30T01:15:24.726Z,100.00
2023-01-30T01:17:55.006Z,100.00
2023-01-30T01:20:24.852Z,100.00
2023-01-30T01:22:56.094Z,100.00
2023-01-30T01:25:29.554Z,100.00
2023-01-30T01:27:59.275Z,100.00
2023-01-30T01:30:28.493Z,100.00
2023-01-30T01:33:00.915Z,100.00
2023-01-30T01:35:30.716Z,100.00
2023-01-30T01:38:00.394Z,100.00
2023-01-30T01:40:49.011Z,100.00
2023-01-30T01:43:23.662Z,100.00
2023-01-30T01:46:00.249Z,100.00
2023-01-30T01:48:32.436Z,100.00
2023-01-30T01:51:06.781Z,100.00
2023-01-30T01:53:41.431Z,100.00
2023-01-30T01:56:14.106Z,100.00
2023-01-30T01:58:47.385Z,100.00
2023-01-30T02:01:16.896Z,100.00
2023-01-30T02:03:53.493Z,100.00
2023-01-30T02:06:24.689Z,100.00
2023-01-30T02:08:59.369Z,100.00
2023-01-30T02:11:36.233Z,100.00
2023-01-30T02:14:08.013Z,100.00
2023-01-30T02:16:38.030Z,100.00
2023-01-30T02:19:20.772Z,100.00
2023-01-30T02:22:19.005Z,100.00
2023-01-30T02:25:05.335Z,100.00
2023-01-30T02:28:12.868Z,100.00
2023-01-30T02:31:13.245Z,100.00
2023-01-30T02:33:53.456Z,100.00
2023-01-30T02:36:30.315Z,100.00
2023-01-30T02:39:09.238Z,100.00
2023-01-30T02:41:50.229Z,100.00
2023-01-30T02:44:26.530Z,100.00
2023-01-30T02:47:05.322Z,100.00
2023-01-30T02:49:40.296Z,100.00
2023-01-30T02:52:12.905Z,100.00
2023-01-30T02:54:42.600Z,100.00
2023-01-30T02:57:21.892Z,100.00
2023-01-30T02:59:58.655Z,100.00
2023-01-30T03:03:10.684Z,100.00
2023-01-30T03:05:53.589Z,100.00
2023-01-30T03:08:32.398Z,100.00
2023-01-30T03:11:07.025Z,100.00
2023-01-30T03:13:46.864Z,100.00
2023-01-30T03:16:20.625Z,100.00
2023-01-30T03:18:51.425Z,100.00
2023-01-30T03:21:21.575Z,100.00
2023-01-30T03:23:51.174Z,100.00
2023-01-30T03:26:26.442Z,100.00
2023-01-30T03:28:56.259Z,100.00
2023-01-30T03:31:25.902Z,100.00
2023-01-30T03:33:57.037Z,100.00
2023-01-30T03:36:26.375Z,100.00
2023-01-30T03:38:59.563Z,100.00
2023-01-30T03:41:28.753Z,100.00
2023-01-30T03:43:58.061Z,100.00
2023-01-30T03:46:27.779Z,100.00
2023-01-30T03:48:58.705Z,100.00
2023-01-30T03:51:30.674Z,100.00
2023-01-30T03:54:00.370Z,100.00
2023-01-30T03:56:29.505Z,100.00
2023-01-30T03:58:59.221Z,100.00
2023-01-30T04:01:37.318Z,100.00
2023-01-30T04:04:08.385Z,100.00
2023-01-30T04:06:37.753Z,100.00
2023-01-30T04:09:08.243Z,100.00
2023-01-30T04:11:45.263Z,100.00
2023-01-30T04:14:15.434Z,100.00
2023-01-30T04:17:08.144Z,100.00
2023-01-30T04:19:59.329Z,100.00
2023-01-30T04:22:29.339Z,100.00
2023-01-30T04:24:58.908Z,100.00
2023-01-30T04:27:28.492Z,100.00
2023-01-30T04:30:30.763Z,100.00
2023-01-30T04:33:37.128Z,100.00
2023-01-30T04:36:12.034Z,100.00
2023-01-30T04:38:42.578Z,100.00
2023-01-30T04:41:12.245Z,100.00
2023-01-30T04:43:44.825Z,100.00
2023-01-30T04:46:34.703Z,100.00
2023-01-30T04:49:04.436Z,100.00
2023-01-30T04:51:35.982Z,100.00
2023-01-30T04:54:06.695Z,100.00
2023-01-30T04:56:35.972Z,100.00
2023-01-30T04:59:05.899Z,100.00
2023-01-30T05:01:41.411Z,100.00
2023-01-30T05:04:11.090Z,100.00
2023-01-30T05:06:41.822Z,100.00
2023-01-30T05:09:11.025Z,100.00
2023-01-30T05:11:40.216Z,100.00
2023-01-30T05:14:09.573Z,100.00
2023-01-30T05:16:38.700Z,100.00
2023-01-30T05:19:08.013Z,100.00
2023-01-30T05:21:37.112Z,100.00
2023-01-30T05:24:08.436Z,100.00
2023-01-30T05:26:37.794Z,100.00
2023-01-30T05:29:07.156Z,100.00
2023-01-30T05:31:39.005Z,100.00
2023-01-30T05:34:08.416Z,100.00
2023-01-30T05:36:37.143Z,100.00
2023-01-30T05:39:08.059Z,100.00
2023-01-30T05:41:37.239Z,100.00
2023-01-30T05:44:06.855Z,100.00
2023-01-30T05:46:36.302Z,100.00
2023-01-30T05:49:05.371Z,100.00
2023-01-30T05:51:36.534Z,100.00
2023-01-30T05:54:07.338Z,100.00
2023-01-30T05:56:36.839Z,100.00
2023-01-30T05:59:06.545Z,100.00
2023-01-30T06:01:35.928Z,100.00
2023-01-30T06:04:05.172Z,100.00
2023-01-30T06:06:36.848Z,100.00
2023-01-30T06:09:07.647Z,100.00
2023-01-30T06:11:37.120Z,100.00
2023-01-30T06:14:08.941Z,100.00
2023-01-30T06:16:38.352Z,100.00
2023-01-30T06:19:09.253Z,100.00
2023-01-30T06:21:38.539Z,100.00
2023-01-30T06:24:12.033Z,100.00
2023-01-30T06:26:43.520Z,100.00
2023-01-30T06:29:15.637Z,100.00
2023-01-30T06:31:47.554Z,100.00
2023-01-30T06:34:17.330Z,100.00
2023-01-30T06:36:46.850Z,100.00
2023-01-30T06:39:18.030Z,99.23
2023-01-30T06:41:47.745Z,99.81
2023-01-30T06:44:17.037Z,98.74
2023-01-30T06:46:46.453Z,95.82
2023-01-30T06:49:15.726Z,95.61
2023-01-30T06:51:45.021Z,95.07
2023-01-30T06:54:14.971Z,92.67
2023-01-30T06:56:46.057Z,93.72
2023-01-30T06:59:16.019Z,93.03
2023-01-30T07:01:45.334Z,92.73
2023-01-30T07:04:16.763Z,93.11
2023-01-30T07:06:46.964Z,92.82
2023-01-30T07:09:16.195Z,92.08
2023-01-30T07:11:47.839Z,91.92
2023-01-30T07:14:19.520Z,91.99
2023-01-30T07:16:49.956Z,92.15
2023-01-30T07:19:19.622Z,93.02
2023-01-30T07:21:48.900Z,92.85
2023-01-30T07:24:18.907Z,92.92
2023-01-30T07:26:51.176Z,93.46
2023-01-30T07:29:20.732Z,92.44
2023-01-30T07:31:50.203Z,93.84
2023-01-30T07:34:20.162Z,94.39
2023-01-30T07:36:49.328Z,92.25
2023-01-30T07:39:19.122Z,92.52
2023-01-30T07:41:48.773Z,92.45
2023-01-30T07:44:21.043Z,93.85
2023-01-30T07:46:51.106Z,92.47
2023-01-30T07:49:20.767Z,93.17
2023-01-30T07:51:50.456Z,93.61
2023-01-30T07:54:20.052Z,93.47
2023-01-30T07:56:49.657Z,92.80
2023-01-30T07:59:20.544Z,91.81
2023-01-30T08:01:52.397Z,93.27
2023-01-30T08:04:21.995Z,92.33
2023-01-30T08:06:52.591Z,92.47
2023-01-30T08:09:22.424Z,92.90
2023-01-30T08:11:52.875Z,91.57
2023-01-30T08:14:23.748Z,91.61
2023-01-30T08:16:53.216Z,92.17
2023-01-30T08:19:22.914Z,92.14
2023-01-30T08:21:55.136Z,92.07
2023-01-30T08:24:24.477Z,91.84
2023-01-30T08:26:56.144Z,91.85
2023-01-30T08:29:26.799Z,92.43
2023-01-30T08:31:59.076Z,91.33
2023-01-30T08:34:29.001Z,92.08
2023-01-30T08:37:00.753Z,91.78
2023-01-30T08:39:30.241Z,91.80
2023-01-30T08:41:59.647Z,92.61
2023-01-30T08:44:30.153Z,91.75
2023-01-30T08:46:59.362Z,91.34
2023-01-30T08:49:28.294Z,91.12
2023-01-30T08:51:57.993Z,92.98
2023-01-30T08:54:27.247Z,92.37
2023-01-30T08:56:56.263Z,92.15
2023-01-30T08:59:25.665Z,91.91
2023-01-30T09:01:56.132Z,92.24
2023-01-30T09:04:26.657Z,90.91
2023-01-30T09:06:56.626Z,90.45
2023-01-30T09:09:25.814Z,91.14
2023-01-30T09:11:55.438Z,91.14
2023-01-30T09:14:24.664Z,91.67
2023-01-30T09:16:56.701Z,92.03
2023-01-30T09:19:26.782Z,91.84
2023-01-30T09:21:57.770Z,92.02
2023-01-30T09:24:27.916Z,92.12
2023-01-30T09:26:59.398Z,91.28
2023-01-30T09:29:29.328Z,93.00
2023-01-30T09:32:00.377Z,91.48
2023-01-30T09:34:29.591Z,89.85
2023-01-30T09:37:00.407Z,91.02
2023-01-30T09:39:30.175Z,91.54
2023-01-30T09:42:16.416Z,90.89
2023-01-30T09:45:01.707Z,91.80
2023-01-30T09:47:42.107Z,92.07
2023-01-30T09:50:29.124Z,91.82
2023-01-30T09:53:04.472Z,91.47
2023-01-30T09:55:38.248Z,91.82
2023-01-30T09:58:14.734Z,91.05
2023-01-30T10:00:43.908Z,92.75
2023-01-30T10:03:17.264Z,91.65
2023-01-30T10:05:48.395Z,90.96
2023-01-30T10:08:54.136Z,92.87
2023-01-30T10:11:52.211Z,92.74
2023-01-30T10:14:49.714Z,92.51
2023-01-30T10:17:41.668Z,91.30
2023-01-30T10:20:31.936Z,91.44
2023-01-30T10:23:17.232Z,92.32
2023-01-30T10:25:49.970Z,89.78
2023-01-30T10:28:23.995Z,91.97
2023-01-30T10:30:57.497Z,92.59
2023-01-30T10:33:34.343Z,91.91
2023-01-30T10:36:09.597Z,93.21
2023-01-30T10:38:44.508Z,91.84
2023-01-30T10:41:25.523Z,93.01
2023-01-30T10:44:01.235Z,93.03
2023-01-30T10:46:49.225Z,91.74
2023-01-30T10:49:24.889Z,91.69
2023-01-30T10:52:02.017Z,92.38
2023-01-30T10:54:38.923Z,92.13
2023-01-30T10:57:20.380Z,92.91
2023-01-30T10:59:56.720Z,92.62
2023-01-30T11:02:33.895Z,91.45
2023-01-30T11:05:11.932Z,90.56
2023-01-30T11:07:47.306Z,91.38
2023-01-30T11:10:19.892Z,92.04
2023-01-30T11:12:55.493Z,91.44
2023-01-30T11:15:40.142Z,92.08
2023-01-30T11:18:42.192Z,90.77
2023-01-30T11:21:05.544Z,91.88
2023-01-30T11:23:41.482Z,91.47
2023-01-30T11:26:22.478Z,90.57
2023-01-30T11:28:52.307Z,90.69
2023-01-30T11:31:40.022Z,88.75
2023-01-30T11:34:16.647Z,89.17
2023-01-30T11:36:47.310Z,86.78
2023-01-30T11:39:29.817Z,86.32
2023-01-30T11:42:04.692Z,86.86
2023-01-30T11:44:36.737Z,87.37
2023-01-30T11:47:10.384Z,86.85
2023-01-30T11:49:49.653Z,86.52
2023-01-30T11:52:31.413Z,86.36
2023-01-30T11:55:05.903Z,86.01
2023-01-30T11:57:42.990Z,85.88
2023-01-30T12:00:18.616Z,86.38
2023-01-30T12:02:49.738Z,86.11
2023-01-30T12:05:27.467Z,86.47
2023-01-30T12:08:14.472Z,84.81
2023-01-30T12:10:47.580Z,84.94
2023-01-30T12:13:21.893Z,86.17
2023-01-30T12:15:58.283Z,86.47
2023-01-30T12:18:33.721Z,86.61
2023-01-30T12:21:04.793Z,86.77
2023-01-30T12:23:41.316Z,86.37
2023-01-30T12:26:17.096Z,86.85
2023-01-30T12:28:53.399Z,87.00
2023-01-30T12:31:31.681Z,86.74
2023-01-30T12:34:01.485Z,86.87
2023-01-30T12:36:42.660Z,86.86
2023-01-30T12:39:21.303Z,84.49
2023-01-30T12:42:15.514Z,85.77
2023-01-30T12:45:06.479Z,85.05
2023-01-30T12:47:56.607Z,85.85
2023-01-30T12:50:34.777Z,85.61
2023-01-30T12:53:33.068Z,85.60
2023-01-30T12:56:18.956Z,86.18
2023-01-30T12:58:56.004Z,86.22
2023-01-30T13:01:35.252Z,87.27
2023-01-30T13:04:15.520Z,85.89
2023-01-30T13:06:56.310Z,84.56
2023-01-30T13:09:40.231Z,87.22
2023-01-30T13:12:18.446Z,87.02
2023-01-30T13:14:57.259Z,85.88
2023-01-30T13:17:40.989Z,87.32
2023-01-30T13:20:18.574Z,87.57
2023-01-30T13:22:55.652Z,88.02
2023-01-30T13:25:33.939Z,87.72
2023-01-30T13:28:11.373Z,88.82
2023-01-30T13:30:45.350Z,88.73
2023-01-30T13:33:22.192Z,88.30
2023-01-30T13:35:57.962Z,89.16
2023-01-30T13:38:29.082Z,89.18
2023-01-30T13:41:01.215Z,88.60
2023-01-30T13:43:35.507Z,90.70
2023-01-30T13:46:12.179Z,89.72
2023-01-30T13:48:56.829Z,90.38
2023-01-30T13:51:44.561Z,90.00
2023-01-30T13:54:27.319Z,91.97
2023-01-30T13:57:05.340Z,90.04
2023-01-30T13:59:55.895Z,90.18
2023-01-30T14:02:27.262Z,91.47
2023-01-30T14:04:58.071Z,91.48
2023-01-30T14:07:31.276Z,90.26
2023-01-30T14:10:16.912Z,90.04
2023-01-30T14:12:49.148Z,90.72
2023-01-30T14:15:29.039Z,90.48
2023-01-30T14:18:03.234Z,88.91
2023-01-30T14:20:34.642Z,89.70
2023-01-30T14:23:20.753Z,90.31
2023-01-30T14:25:53.378Z,90.50
2023-01-30T14:29:01.970Z,89.27
2023-01-30T14:32:03.705Z,89.43
2023-01-30T14:34:45.099Z,89.63
2023-01-30T14:37:57.977Z,89.00
2023-01-30T14:40:36.690Z,88.89
2023-01-30T14:43:42.584Z,90.06
2023-01-30T14:46:54.794Z,90.38
2023-01-30T14:49:33.904Z,90.40
2023-01-30T14:52:06.449Z,90.04
2023-01-30T14:54:44.947Z,89.75
2023-01-30T14:57:24.401Z,90.07
2023-01-30T15:02:54.659Z,89.83
2023-01-30T15:05:31.829Z,89.87
2023-01-30T15:08:10.225Z,90.19
2023-01-30T15:10:53.839Z,91.23
2023-01-30T15:13:40.876Z,90.99
2023-01-30T15:16:34.588Z,90.78
2023-01-30T15:19:20.628Z,90.25
2023-01-30T15:22:15.643Z,92.06
2023-01-30T15:25:07.337Z,91.87
2023-01-30T15:27:47.792Z,92.00
2023-01-30T15:30:25.329Z,92.21
2023-01-30T15:33:29.233Z,92.63
2023-01-30T15:36:01.185Z,92.34
2023-01-30T15:38:32.296Z,91.45
2023-01-30T15:41:06.196Z,91.13
2023-01-30T15:44:01.234Z,91.11
2023-01-30T15:46:40.159Z,91.02
2023-01-30T15:49:49.603Z,92.98
2023-01-30T15:52:26.413Z,92.23
2023-01-30T15:54:58.454Z,92.19
2023-01-30T15:57:33.991Z,91.29
2023-01-30T16:00:06.201Z,91.44
2023-01-30T16:02:44.893Z,91.40
2023-01-30T16:05:19.406Z,93.27
2023-01-30T16:07:50.823Z,93.71
2023-01-30T16:10:22.708Z,93.21
2023-01-30T16:12:57.297Z,94.39
2023-01-30T16:15:33.337Z,95.81
2023-01-30T16:18:06.822Z,94.92
2023-01-30T16:20:55.331Z,96.49
2023-01-30T16:23:32.785Z,93.94
2023-01-30T16:26:03.426Z,95.41
2023-01-30T16:28:35.436Z,95.54
2023-01-30T16:31:07.769Z,98.81
2023-01-30T16:33:37.816Z,100.00
2023-01-30T16:36:29.872Z,100.00
2023-01-30T16:39:00.568Z,100.00
2023-01-30T16:41:32.739Z,100.00
2023-01-30T16:44:24.168Z,99.06
2023-01-30T16:46:58.100Z,97.28
2023-01-30T16:49:44.304Z,98.51
2023-01-30T16:52:19.756Z,99.81
2023-01-30T16:54:52.693Z,99.35
2023-01-30T16:57:31.967Z,98.46
2023-01-30T17:00:10.214Z,98.73
2023-01-30T17:02:43.004Z,98.89
2023-01-30T17:05:20.616Z,98.30
2023-01-30T17:07:51.436Z,96.85
2023-01-30T17:10:54.779Z,95.91
2023-01-30T17:13:34.057Z,96.85
2023-01-30T17:16:35.319Z,97.10
2023-01-30T17:19:05.102Z,97.17
2023-01-30T17:21:44.078Z,95.79
2023-01-30T17:24:16.517Z,94.97
2023-01-30T17:26:49.077Z,95.85
2023-01-30T17:29:41.042Z,96.39
2023-01-30T17:32:14.710Z,96.18
2023-01-30T17:34:44.497Z,95.82
2023-01-30T17:37:16.876Z,96.36
2023-01-30T17:39:46.261Z,96.08
2023-01-30T17:42:18.138Z,95.93
2023-01-30T17:44:47.218Z,95.40
2023-01-30T17:47:19.000Z,95.89
2023-01-30T17:49:48.922Z,95.80
2023-01-30T17:52:19.739Z,96.30
2023-01-30T17:54:49.188Z,97.59
2023-01-30T17:57:20.298Z,96.95
2023-01-30T17:59:55.832Z,97.14
2023-01-30T18:07:42.886Z,98.41
2023-01-30T18:10:15.880Z,98.75
2023-01-30T18:12:45.605Z,100.00
2023-01-30T18:15:16.567Z,100.00
2023-01-30T18:17:49.489Z,100.00
2023-01-30T18:20:20.864Z,100.00
2023-01-30T18:22:51.620Z,100.00
2023-01-30T18:25:23.533Z,100.00
2023-01-30T18:27:53.078Z,100.00
2023-01-30T18:30:25.216Z,100.00
2023-01-30T18:32:57.080Z,100.00
2023-01-30T18:35:26.617Z,99.27
2023-01-30T18:38:02.655Z,99.65
2023-01-30T18:40:36.368Z,99.55
2023-01-30T18:43:07.394Z,99.95
2023-01-30T18:45:40.064Z,99.27
2023-01-30T18:48:11.746Z,99.37
2023-01-30T18:50:44.503Z,99.66
2023-01-30T18:53:16.721Z,100.00
2023-01-30T18:55:54.183Z,100.00
2023-01-30T18:58:27.497Z,100.00
2023-01-30T19:01:00.759Z,99.81
2023-01-30T19:03:33.949Z,98.49
2023-01-30T19:06:04.210Z,97.63
2023-01-30T19:08:35.192Z,99.08
2023-01-30T19:11:22.449Z,98.93
2023-01-30T19:13:56.323Z,98.03
2023-01-30T19:16:28.664Z,99.45
2023-01-30T19:19:00.689Z,100.00
2023-01-30T19:21:32.998Z,100.00
2023-01-30T19:24:08.272Z,100.00
2023-01-30T19:26:37.919Z,98.35
2023-01-30T19:29:07.803Z,100.00
2023-01-30T19:31:37.915Z,99.47
2023-01-30T19:34:07.965Z,99.20
2023-01-30T19:36:38.077Z,98.32
2023-01-30T19:39:09.482Z,100.00
2023-01-30T19:41:41.465Z,100.00
2023-01-30T19:44:15.330Z,100.00
2023-01-30T19:46:46.493Z,100.00
2023-01-30T19:49:18.067Z,100.00
2023-01-30T19:51:51.103Z,100.00
2023-01-30T19:54:25.842Z,100.00
2023-01-30T19:56:56.156Z,100.00
2023-01-30T19:59:29.967Z,99.31
2023-01-30T20:02:00.023Z,97.95
2023-01-30T20:04:29.932Z,98.59
2023-01-30T20:06:59.759Z,99.70
2023-01-30T20:09:31.010Z,100.00
2023-01-30T20:12:00.779Z,100.00
2023-01-30T20:14:30.062Z,99.48
2023-01-30T20:16:59.539Z,100.00
2023-01-30T20:19:29.146Z,99.97
2023-01-30T20:21:59.797Z,100.00
2023-01-30T20:24:31.200Z,100.00
2023-01-30T20:27:01.080Z,100.00
2023-01-30T20:29:30.954Z,100.00
2023-01-30T20:32:00.538Z,100.00
2023-01-30T20:34:30.012Z,100.00
2023-01-30T20:37:00.167Z,100.00
2023-01-30T20:39:30.949Z,98.65
2023-01-30T20:42:00.439Z,97.82
2023-01-30T20:44:29.866Z,97.20
2023-01-30T20:47:01.629Z,97.68
2023-01-30T20:49:30.814Z,96.96
2023-01-30T20:52:00.338Z,96.50
2023-01-30T20:54:30.981Z,97.51
2023-01-30T20:57:03.830Z,96.69
2023-01-30T20:59:33.477Z,97.34
2023-01-30T21:02:03.126Z,97.39
2023-01-30T21:04:32.333Z,98.47
2023-01-30T21:07:02.483Z,98.65
2023-01-30T21:09:32.899Z,97.61
2023-01-30T21:12:02.415Z,98.56
2023-01-30T21:14:31.661Z,98.45
2023-01-30T21:17:01.604Z,98.92
2023-01-30T21:19:30.965Z,96.91
2023-01-30T21:22:07.498Z,94.99
2023-01-30T21:24:39.547Z,94.29
2023-01-30T21:27:09.281Z,93.88
2023-01-30T21:29:39.146Z,94.05
2023-01-30T21:32:08.744Z,94.76
2023-01-30T21:34:37.958Z,94.63
2023-01-30T21:37:25.247Z,94.32
2023-01-30T21:40:13.842Z,94.59
2023-01-30T21:43:01.106Z,93.91
2023-01-30T21:45:32.699Z,93.87
2023-01-30T21:48:02.376Z,93.79
2023-01-30T21:50:31.598Z,93.45
2023-01-30T21:53:01.870Z,93.38
2023-01-30T21:55:32.562Z,92.65
2023-01-30T21:58:03.386Z,93.12
2023-01-30T22:00:33.362Z,92.82
2023-01-30T22:03:02.449Z,93.25
2023-01-30T22:05:36.758Z,93.79
2023-01-30T22:08:06.421Z,93.82
2023-01-30T22:10:37.415Z,93.82
2023-01-30T22:13:06.620Z,94.78
2023-01-30T22:15:36.309Z,95.62
2023-01-30T22:18:05.754Z,96.04
2023-01-30T22:20:35.282Z,96.70
2023-01-30T22:23:40.153Z,95.57
2023-01-30T22:26:12.615Z,96.35
2023-01-30T22:28:42.006Z,98.36
2023-01-30T22:31:13.062Z,99.84
2023-01-30T22:33:45.576Z,100.00
2023-01-30T22:36:14.819Z,100.00
2023-01-30T22:38:44.355Z,100.00
2023-01-30T22:41:17.388Z,100.00
2023-01-30T22:43:48.430Z,100.00
2023-01-30T22:46:19.723Z,100.00
2023-01-30T22:48:49.462Z,100.00
2023-01-30T22:51:21.601Z,100.00
2023-01-30T22:53:53.464Z,99.72
2023-01-30T22:56:27.362Z,98.95
2023-01-30T22:58:58.281Z,98.56
2023-01-30T23:01:29.574Z,98.56
2023-01-30T23:04:00.559Z,99.36
2023-01-30T23:06:31.549Z,98.84
2023-01-30T23:09:01.978Z,99.21
2023-01-30T23:11:34.506Z,100.00
2023-01-30T23:14:09.684Z,100.00
2023-01-30T23:16:41.119Z,100.00
2023-01-30T23:19:11.352Z,100.00
2023-01-30T23:21:42.683Z,100.00
2023-01-30T23:24:14.733Z,100.00
2023-01-30T23:26:47.435Z,100.00
2023-01-30T23:29:19.475Z,100.00
2023-01-30T23:31:49.447Z,100.00
2023-01-30T23:34:20.476Z,100.00
2023-01-30T23:36:50.031Z,100.00
2023-01-30T23:39:20.277Z,100.00
2023-01-30T23:41:51.620Z,100.00
2023-01-30T23:44:21.489Z,100.00
2023-01-30T23:46:51.115Z,100.00
2023-01-30T23:49:20.997Z,100.00
2023-01-30T23:51:50.971Z,100.00
2023-01-30T23:54:20.607Z,100.00
2023-01-30T23:56:51.673Z,100.00
2023-01-30T23:59:21.290Z,100.00
